Time;durP1;ratioP1;P1;durP2;ratioP2;P2;SDS_P1;SDS_P2;PMS_P1;PMS_P2;Temp;Humidity;BMP_temperature;BMP_pressure;BME280_temperature;BME280_humidity;BME280_pressure;Samples;Min_cycle;Max_cycle;Signal;HPM_P1;HPM_P2
2023/01/10 00:00:19;;;;;;;19.83;3.55;;;;;;;6.84;100.00;101058.78;5017124;28;20124;-68
2023/01/10 00:02:45;;;;;;;19.13;3.38;;;;;;;6.90;100.00;101056.94;5016284;28;20397;-69
2023/01/10 00:05:10;;;;;;;22.77;4.22;;;;;;;6.51;100.00;100995.56;5034244;28;20048;-67
2023/01/10 00:07:35;;;;;;;15.50;3.10;;;;;;;6.84;100.00;101053.53;5014075;28;20366;-67
2023/01/10 00:10:01;;;;;;;15.93;3.88;;;;;;;6.76;100.00;101030.97;5023239;28;20041;-68
2023/01/10 00:15:10;;;;;;;21.42;3.45;;;;;;;7.01;100.00;101059.41;5032571;28;20119;-68
2023/01/10 00:17:35;;;;;;;15.90;3.53;;;;;;;7.07;100.00;101085.47;5015951;28;20061;-68
2023/01/10 00:20:00;;;;;;;13.43;2.67;;;;;;;6.83;100.00;101030.91;4999612;28;20033;-67
2023/01/10 00:22:26;;;;;;;19.38;3.78;;;;;;;6.63;100.00;101005.84;5033135;28;20132;-67
2023/01/10 00:24:51;;;;;;;14.27;3.65;;;;;;;7.02;100.00;101076.84;5016012;28;20033;-67
2023/01/10 00:27:21;;;;;;;17.67;3.65;;;;;;;6.60;100.00;101026.81;5015267;28;20029;-67
2023/01/10 00:29:48;;;;;;;18.70;4.00;;;;;;;6.28;100.00;100968.84;5015649;28;20489;-67
2023/01/10 00:32:13;;;;;;;14.93;3.33;;;;;;;7.15;100.00;101112.44;5015643;28;20041;-67
2023/01/10 00:34:39;;;;;;;21.15;3.70;;;;;;;6.78;100.00;101073.66;5033387;28;20123;-68
2023/01/10 00:37:04;;;;;;;17.75;3.80;;;;;;;7.11;100.00;101127.31;5033028;28;20034;-67
2023/01/10 00:39:30;;;;;;;23.33;3.97;;;;;;;7.10;100.00;101122.97;5015172;28;20404;-68
2023/01/10 00:44:39;;;;;;;16.50;3.60;;;;;;;7.12;100.00;101126.41;5033409;28;20044;-67
2023/01/10 00:47:04;;;;;;;13.02;3.30;;;;;;;7.17;100.00;101135.09;5015121;28;20038;-67
2023/01/10 00:49:30;;;;;;;13.63;3.88;;;;;;;7.17;100.00;101126.38;5015405;28;20037;-67
2023/01/10 00:51:57;;;;;;;24.80;4.55;;;;;;;6.80;100.00;101060.56;5015248;28;20065;-68
2023/01/10 00:54:22;;;;;;;16.73;3.88;;;;;;;7.08;100.00;101119.50;5032741;28;20033;-67
2023/01/10 00:56:47;;;;;;;14.55;3.80;;;;;;;7.06;100.00;101120.41;4998721;28;20029;-66
2023/01/10 00:59:13;;;;;;;13.27;3.35;;;;;;;7.10;100.00;101128.19;5033045;28;20040;-66
2023/01/10 01:01:38;;;;;;;22.10;3.75;;;;;;;7.18;100.00;101133.34;5030712;28;20064;-67
2023/01/10 01:04:04;;;;;;;20.70;4.43;;;;;;;7.22;100.00;101128.03;5022644;28;20032;-67
2023/01/10 01:06:29;;;;;;;16.40;3.80;;;;;;;6.67;100.00;101048.53;5032262;28;20469;-67
2023/01/10 01:08:54;;;;;;;21.45;4.53;;;;;;;6.74;100.00;101071.97;5014770;28;20034;-68
2023/01/10 01:11:20;;;;;;;18.45;4.78;;;;;;;7.04;100.00;101119.53;5032292;28;20043;-68
2023/01/10 01:13:45;;;;;;;19.95;3.75;;;;;;;7.15;100.00;101142.06;5032579;28;20088;-66
2023/01/10 01:16:10;;;;;;;14.20;3.58;;;;;;;7.09;100.00;101155.25;5032626;28;20033;-68
2023/01/10 01:18:36;;;;;;;15.52;3.72;;;;;;;6.70;100.00;101075.53;5015159;28;20037;-69
2023/01/10 01:21:02;;;;;;;20.40;4.70;;;;;;;7.08;100.00;101156.16;5032196;28;20037;-68
2023/01/10 01:23:28;;;;;;;16.63;4.82;;;;;;;7.10;100.00;101162.22;5032671;28;20124;-68
2023/01/10 01:25:55;;;;;;;25.80;5.30;;;;;;;7.15;100.00;101170.03;5032674;28;20041;-67
2023/01/10 01:28:20;;;;;;;24.05;4.53;;;;;;;7.14;100.00;101163.06;5032311;28;20033;-66
2023/01/10 01:30:46;;;;;;;21.70;5.38;;;;;;;7.11;100.00;101163.97;5014720;28;20447;-67
2023/01/10 01:33:12;;;;;;;21.35;4.15;;;;;;;7.18;100.00;101162.13;5032198;28;20432;-66
2023/01/10 01:35:41;;;;;;;23.48;4.07;;;;;;;6.81;100.00;101091.06;5032173;28;20033;-66
2023/01/10 01:38:06;;;;;;;20.35;4.82;;;;;;;7.25;100.00;101169.88;4997971;28;20029;-67
2023/01/10 01:40:32;;;;;;;19.65;3.92;;;;;;;6.81;100.00;101104.16;5031537;28;20491;-66
2023/01/10 01:42:57;;;;;;;23.90;5.07;;;;;;;6.93;100.00;101119.72;5013961;28;20557;-67
2023/01/10 01:45:22;;;;;;;24.50;4.28;;;;;;;7.31;100.00;101187.25;4998064;28;20029;-67
2023/01/10 01:48:11;;;;;;;20.02;4.47;;;;;;;7.17;100.00;101171.75;5032062;28;20030;-67
2023/01/10 01:50:39;;;;;;;22.25;4.63;;;;;;;7.29;100.00;101208.25;5013956;28;20036;-67
2023/01/10 01:53:11;;;;;;;22.75;4.85;;;;;;;6.79;100.00;101119.88;5014076;28;20030;-66
2023/01/10 01:55:37;;;;;;;21.25;4.93;;;;;;;6.80;100.00;101124.22;5014182;28;20025;-66
2023/01/10 01:58:05;;;;;;;16.63;4.07;;;;;;;6.91;100.00;101145.03;4997652;28;20404;-67
2023/01/10 02:00:31;;;;;;;21.40;5.03;;;;;;;7.22;100.00;101203.09;5031929;28;20463;-65
2023/01/10 02:02:58;;;;;;;28.42;4.75;;;;;;;7.24;100.00;101212.66;5013851;28;20053;-66
2023/01/10 02:05:24;;;;;;;24.98;4.63;;;;;;;6.90;100.00;101137.19;5031688;28;20496;-66
2023/01/10 02:07:52;;;;;;;21.67;4.22;;;;;;;7.28;100.00;101203.88;5014035;28;20155;-71
2023/01/10 02:10:28;;;;;;;23.17;4.53;;;;;;;7.35;100.00;101218.59;5013963;28;20033;-65
2023/01/10 02:12:55;;;;;;;21.60;4.75;;;;;;;7.03;100.00;101159.72;5014162;28;20033;-67
2023/01/10 02:15:20;;;;;;;23.50;4.50;;;;;;;7.32;100.00;101212.56;4997430;28;20456;-68
2023/01/10 02:17:48;;;;;;;22.58;4.72;;;;;;;7.32;100.00;101208.19;4981532;28;20053;-68
2023/01/10 02:20:14;;;;;;;24.65;4.70;;;;;;;7.32;100.00;101218.69;5031473;28;20029;-68
2023/01/10 02:23:01;;;;;;;20.10;4.10;;;;;;;7.36;100.00;101215.13;5014013;28;20160;-66
2023/01/10 02:25:59;;;;;;;22.15;4.68;;;;;;;7.36;100.00;101209.88;5016222;28;20079;-67
2023/01/10 02:28:39;;;;;;;18.40;3.92;;;;;;;7.34;100.00;101200.31;5013737;28;20477;-67
2023/01/10 02:31:18;;;;;;;21.80;4.23;;;;;;;7.20;100.00;101207.47;5031564;28;20045;-66
2023/01/10 02:33:46;;;;;;;20.85;4.07;;;;;;;7.34;100.00;101230.00;4997395;28;20361;-67
2023/01/10 02:36:27;;;;;;;18.58;4.80;;;;;;;7.35;100.00;101229.06;5013751;28;20454;-67
2023/01/10 02:39:15;;;;;;;20.58;4.28;;;;;;;7.28;100.00;101222.22;5013568;28;20113;-66
2023/01/10 02:41:46;;;;;;;19.27;4.28;;;;;;;7.27;100.00;101230.06;4982991;28;20540;-67
2023/01/10 02:44:23;;;;;;;17.17;3.58;;;;;;;7.30;100.00;101241.38;5013424;28;20473;-67
2023/01/10 02:46:49;;;;;;;19.95;4.18;;;;;;;7.38;100.00;101231.66;5013733;28;20030;-68
2023/01/10 02:49:15;;;;;;;22.10;4.20;;;;;;;7.41;100.00;101243.88;5013579;28;20121;-68
2023/01/10 02:51:40;;;;;;;19.38;4.45;;;;;;;6.94;100.00;101168.56;5034530;28;20029;-67
2023/01/10 02:54:18;;;;;;;17.30;4.10;;;;;;;7.39;100.00;101248.25;5034995;28;20034;-67
2023/01/10 02:56:57;;;;;;;22.30;4.55;;;;;;;7.41;100.00;101256.09;5017564;28;20109;-67
2023/01/10 02:59:46;;;;;;;22.33;5.68;;;;;;;7.04;100.00;101185.84;5019441;28;20049;-66
2023/01/10 03:02:25;;;;;;;21.20;3.97;;;;;;;7.27;100.00;101241.41;5014551;28;20077;-68
2023/01/10 03:05:07;;;;;;;17.35;4.28;;;;;;;7.16;100.00;101243.31;5035097;28;20030;-67
2023/01/10 03:07:53;;;;;;;17.63;4.45;;;;;;;7.17;100.00;101258.13;5020951;28;20052;-65
2023/01/10 03:10:51;;;;;;;23.42;5.07;;;;;;;7.14;100.00;101245.09;5017195;28;20041;-67
2023/01/10 03:13:29;;;;;;;19.23;3.97;;;;;;;7.06;100.00;101265.25;5009961;28;20048;-67
2023/01/10 03:15:56;;;;;;;18.75;4.00;;;;;;;6.91;100.00;101239.25;5000833;28;20029;-67
2023/01/10 03:18:34;;;;;;;18.33;4.45;;;;;;;6.91;100.00;101251.47;5017127;28;20492;-68
2023/01/10 03:21:02;;;;;;;20.27;4.25;;;;;;;6.95;100.00;101254.00;5034788;28;20499;-66
2023/01/10 03:23:28;;;;;;;19.83;3.60;;;;;;;6.52;100.00;101187.34;5016806;28;20385;-67
2023/01/10 03:25:55;;;;;;;15.63;3.95;;;;;;;6.95;100.00;101259.25;5016835;28;20021;-67
2023/01/10 03:28:25;;;;;;;20.42;4.65;;;;;;;6.44;100.00;101182.19;5016616;28;20048;-68
2023/01/10 03:31:01;;;;;;;19.63;4.65;;;;;;;6.74;100.00;101247.25;5034771;28;20044;-68
2023/01/10 03:33:28;;;;;;;25.65;4.82;;;;;;;6.78;100.00;101255.94;5001817;28;20035;-68
2023/01/10 03:36:19;;;;;;;18.45;4.82;;;;;;;6.80;100.00;101268.13;5000360;28;20033;-67
2023/01/10 03:38:56;;;;;;;16.85;3.92;;;;;;;6.32;100.00;101211.06;5016983;28;20485;-66
2023/01/10 03:41:39;;;;;;;21.25;4.50;;;;;;;6.62;100.00;101288.38;4980852;28;20412;-67
2023/01/10 03:47:29;;;;;;;24.77;4.97;;;;;;;6.50;100.00;101276.28;5033672;28;20048;-68
2023/01/10 03:50:27;;;;;;;18.58;3.85;;;;;;;6.46;100.00;101299.84;5034027;28;20484;-66
2023/01/10 03:52:52;;;;;;;26.83;4.28;;;;;;;6.42;100.00;101300.75;4947279;28;20042;-67
2023/01/10 03:55:20;;;;;;;18.27;4.32;;;;;;;6.33;100.00;101293.00;5017901;28;20048;-66
2023/01/10 03:57:46;;;;;;;18.55;4.80;;;;;;;6.36;100.00;101295.59;5016278;28;20526;-67
2023/01/10 04:00:13;;;;;;;19.98;4.35;;;;;;;5.94;100.00;101245.34;5034057;28;20041;-67
2023/01/10 04:02:38;;;;;;;23.90;4.18;;;;;;;6.12;100.00;101276.59;5012779;28;20057;-66
2023/01/10 04:05:04;;;;;;;23.33;5.15;;;;;;;5.81;100.00;101232.38;4999636;28;20049;-67
2023/01/10 04:07:30;;;;;;;19.50;4.47;;;;;;;6.14;100.00;101287.91;5033985;28;20033;-66
2023/01/10 04:09:55;;;;;;;18.58;4.40;;;;;;;6.21;100.00;101304.41;5016119;28;20037;-68
2023/01/10 04:12:20;;;;;;;17.63;4.25;;;;;;;5.77;100.00;101231.50;5016117;28;20033;-67
2023/01/10 04:14:46;;;;;;;19.65;4.10;;;;;;;6.18;100.00;101312.28;4999398;28;20044;-67
2023/01/10 04:17:12;;;;;;;24.17;4.85;;;;;;;5.82;100.00;101257.59;4999805;28;20068;-67
2023/01/10 04:19:38;;;;;;;25.80;5.82;;;;;;;5.66;100.00;101254.22;5034296;28;20025;-66
2023/01/10 04:22:04;;;;;;;24.25;4.50;;;;;;;5.54;100.00;101259.50;5033102;28;20045;-67
2023/01/10 04:24:30;;;;;;;24.48;4.38;;;;;;;5.77;100.00;101328.16;5033613;28;20037;-67
2023/01/10 04:26:56;;;;;;;23.67;3.95;;;;;;;5.82;100.00;101341.19;5015885;28;20049;-66
2023/01/10 04:29:21;;;;;;;20.75;4.45;;;;;;;5.72;100.00;101316.84;5033410;28;20469;-68
2023/01/10 04:31:46;;;;;;;15.82;4.25;;;;;;;5.79;100.00;101334.22;5015760;28;20037;-66
2023/01/10 04:34:12;;;;;;;27.65;4.65;;;;;;;5.73;100.00;101322.94;5015985;28;20040;-67
2023/01/10 04:36:37;;;;;;;23.83;5.10;;;;;;;5.23;100.00;101250.06;5033523;28;20038;-67
2023/01/10 04:39:03;;;;;;;19.13;4.38;;;;;;;5.22;100.00;101254.44;5033136;28;20779;-66
2023/01/10 04:41:29;;;;;;;27.02;4.93;;;;;;;5.13;100.00;101243.16;4999246;28;20473;-68
2023/01/10 04:43:54;;;;;;;26.27;4.65;;;;;;;5.52;100.00;101316.06;5015371;28;20021;-67
2023/01/10 04:46:19;;;;;;;16.05;4.22;;;;;;;5.52;100.00;101321.28;5015251;28;20140;-67
2023/01/10 04:48:45;;;;;;;23.70;5.70;;;;;;;5.53;100.00;101333.47;5032713;28;20033;-68
2023/01/10 04:51:10;;;;;;;26.92;4.90;;;;;;;5.30;100.00;101312.69;5015270;28;20033;-67
2023/01/10 04:53:36;;;;;;;24.17;4.60;;;;;;;4.97;100.00;101298.00;5032706;28;20060;-67
2023/01/10 04:56:03;;;;;;;21.70;5.30;;;;;;;5.33;100.00;101367.50;4998788;28;20072;-67
2023/01/10 04:58:28;;;;;;;35.72;6.57;;;;;;;4.82;100.00;101279.75;5015103;28;20092;-68
2023/01/10 05:00:53;;;;;;;19.17;4.28;;;;;;;5.26;100.00;101363.16;5030490;28;20037;-69
2023/01/10 05:03:19;;;;;;;28.10;5.88;;;;;;;5.19;100.00;101340.56;5014959;28;20489;-68
2023/01/10 05:05:44;;;;;;;28.70;5.13;;;;;;;5.25;100.00;101357.94;5032556;28;20029;-67
2023/01/10 05:08:09;;;;;;;32.15;4.82;;;;;;;4.82;100.00;101282.38;5014848;28;20037;-67
2023/01/10 05:10:35;;;;;;;21.95;4.22;;;;;;;5.15;100.00;101341.44;5032685;28;20413;-67
2023/01/10 05:13:00;;;;;;;24.90;4.18;;;;;;;5.16;100.00;101347.53;5014788;28;20137;-66
2023/01/10 05:15:26;;;;;;;26.63;5.43;;;;;;;4.83;100.00;101278.91;5014930;28;20029;-67
2023/01/10 05:17:57;;;;;;;22.42;4.65;;;;;;;4.94;100.00;101298.00;4998637;28;20488;-68
2023/01/10 05:20:22;;;;;;;24.38;5.55;;;;;;;5.27;100.00;101370.13;5014607;28;20091;-68
2023/01/10 05:22:48;;;;;;;27.15;5.22;;;;;;;5.26;100.00;101367.50;5014650;28;20120;-69
2023/01/10 05:25:13;;;;;;;18.30;4.05;;;;;;;5.18;100.00;101374.47;5015101;28;20076;-67
2023/01/10 05:27:42;;;;;;;21.42;5.00;;;;;;;4.84;100.00;101321.50;5014838;28;20180;-67
2023/01/10 05:30:11;;;;;;;24.45;4.72;;;;;;;5.09;100.00;101373.63;5013997;28;20052;-67
2023/01/10 05:32:37;;;;;;;28.27;5.32;;;;;;;5.15;100.00;101387.53;5014560;28;20033;-68
2023/01/10 05:35:02;;;;;;;28.05;4.90;;;;;;;5.02;100.00;101381.50;5032174;28;20033;-67
2023/01/10 05:37:27;;;;;;;19.55;5.25;;;;;;;5.02;100.00;101364.06;5014561;28;20024;-67
2023/01/10 05:39:53;;;;;;;19.90;4.97;;;;;;;5.03;100.00;101367.56;5014694;28;20033;-67
2023/01/10 05:42:18;;;;;;;27.80;5.70;;;;;;;5.16;100.00;101381.47;5014514;28;20091;-66
2023/01/10 05:44:43;;;;;;;28.10;5.50;;;;;;;5.15;100.00;101408.41;5032395;28;20116;-68
2023/01/10 05:47:09;;;;;;;26.60;4.68;;;;;;;5.15;100.00;101404.06;4998089;28;20227;-67
2023/01/10 05:49:34;;;;;;;29.55;5.25;;;;;;;5.18;100.00;101406.69;5014655;28;20464;-66
2023/01/10 05:51:59;;;;;;;24.05;5.45;;;;;;;5.11;100.00;101397.09;5014369;28;20400;-67
2023/01/10 05:54:25;;;;;;;28.13;5.28;;;;;;;4.92;100.00;101353.66;5014241;28;20499;-65
2023/01/10 05:56:50;;;;;;;25.48;5.03;;;;;;;4.82;100.00;101341.47;5032166;28;20037;-67
2023/01/10 05:59:15;;;;;;;25.48;5.25;;;;;;;5.04;100.00;101400.59;5031614;28;20464;-66
2023/01/10 06:01:41;;;;;;;27.40;5.93;;;;;;;5.05;100.00;101417.97;5030852;28;20520;-66
2023/01/10 06:04:06;;;;;;;29.00;5.95;;;;;;;5.01;100.00;101411.03;5031274;28;20041;-67
2023/01/10 06:06:33;;;;;;;34.05;5.35;;;;;;;4.83;100.00;101378.00;5031094;28;20037;-67
2023/01/10 06:08:58;;;;;;;28.88;5.10;;;;;;;4.96;100.00;101413.63;5031697;28;20037;-66
2023/01/10 06:11:28;;;;;;;31.73;5.65;;;;;;;4.97;100.00;101407.56;5031356;28;20401;-66
2023/01/10 06:13:54;;;;;;;28.52;5.30;;;;;;;4.65;100.00;101340.63;4997933;28;20045;-67
2023/01/10 06:16:20;;;;;;;22.58;5.45;;;;;;;4.51;100.00;101318.06;5031672;28;20137;-67
2023/01/10 06:18:45;;;;;;;27.77;5.60;;;;;;;4.89;100.00;101377.13;5031552;28;20034;-67
2023/01/10 06:21:11;;;;;;;25.65;4.40;;;;;;;4.92;100.00;101404.09;5030736;28;20088;-66
2023/01/10 06:23:36;;;;;;;24.42;4.22;;;;;;;4.88;100.00;101419.72;5013618;28;20029;-67
2023/01/10 06:26:01;;;;;;;36.97;6.25;;;;;;;4.72;100.00;101408.44;5031186;28;20038;-67
2023/01/10 06:28:27;;;;;;;26.63;4.60;;;;;;;4.66;100.00;101418.88;5013779;28;20034;-67
2023/01/10 06:30:52;;;;;;;23.88;5.47;;;;;;;4.50;100.00;101420.56;5031074;28;20052;-65
2023/01/10 06:33:17;;;;;;;28.38;5.45;;;;;;;4.35;100.00;101424.91;5031238;28;20048;-66
2023/01/10 06:35:45;;;;;;;22.35;5.07;;;;;;;3.82;100.00;101365.69;5031946;28;20035;-67
2023/01/10 06:38:11;;;;;;;21.83;6.13;;;;;;;3.56;100.00;101328.28;5031647;28;20382;-67
2023/01/10 06:40:36;;;;;;;25.73;5.40;;;;;;;3.66;100.00;101358.69;5031237;28;20116;-66
2023/01/10 06:43:01;;;;;;;30.67;5.68;;;;;;;4.09;100.00;101444.78;5013544;28;20373;-67
2023/01/10 06:45:27;;;;;;;28.75;6.05;;;;;;;4.07;100.00;101434.38;5031441;28;20388;-66
2023/01/10 06:47:52;;;;;;;30.65;5.57;;;;;;;3.59;100.00;101369.09;5030382;28;20049;-67
2023/01/10 06:50:18;;;;;;;25.38;5.13;;;;;;;4.00;100.00;101453.44;5013584;28;20439;-66
2023/01/10 06:52:43;;;;;;;32.00;6.22;;;;;;;3.86;100.00;101445.56;5013747;28;20044;-67
2023/01/10 06:55:09;;;;;;;23.02;5.40;;;;;;;4.01;100.00;101475.16;5030891;28;20044;-67
2023/01/10 06:57:34;;;;;;;28.48;6.10;;;;;;;4.09;100.00;101469.09;5030759;28;20022;-67
2023/01/10 07:00:02;;;;;;;24.30;5.18;;;;;;;4.27;100.00;101473.50;5013331;28;20037;-65
2023/01/10 07:02:27;;;;;;;22.90;4.82;;;;;;;3.92;100.00;101372.69;5027724;28;20062;-66
2023/01/10 07:04:52;;;;;;;31.13;5.40;;;;;;;4.16;100.00;101397.94;5031252;28;20400;-66
2023/01/10 07:07:18;;;;;;;34.97;5.40;;;;;;;4.41;100.00;101424.91;5031380;28;20075;-71
2023/01/10 07:09:45;;;;;;;33.22;5.90;;;;;;;4.85;100.00;101488.44;5031450;28;20036;-70
2023/01/10 07:12:10;;;;;;;21.73;4.97;;;;;;;4.85;100.00;101469.28;5030869;28;20132;-72
2023/01/10 07:14:35;;;;;;;27.75;6.38;;;;;;;5.11;100.00;101494.53;5030957;28;20038;-70
2023/01/10 07:17:01;;;;;;;22.17;4.80;;;;;;;4.27;100.00;101345.81;5013182;28;20036;-70
2023/01/10 07:19:26;;;;;;;23.27;5.22;;;;;;;5.26;100.00;101500.63;5013250;28;20112;-71
2023/01/10 07:21:51;;;;;;;25.80;5.55;;;;;;;5.28;100.00;101491.94;5031248;28;20030;-70
2023/01/10 07:24:17;;;;;;;28.35;5.65;;;;;;;4.80;100.00;101411.03;5030755;28;20408;-71
2023/01/10 07:26:42;;;;;;;24.48;4.97;;;;;;;5.32;100.00;101493.66;5031291;28;20460;-69
2023/01/10 07:29:08;;;;;;;25.27;4.88;;;;;;;5.22;100.00;101472.78;5013359;28;20392;-70
2023/01/10 07:31:33;;;;;;;23.42;4.63;;;;;;;5.36;100.00;101499.75;5012603;28;20070;-71
2023/01/10 07:33:59;;;;;;;31.67;5.28;;;;;;;4.96;100.00;101421.47;5030395;28;20140;-71
2023/01/10 07:36:24;;;;;;;27.52;6.22;;;;;;;5.36;100.00;101484.97;5013342;28;20068;-73
2023/01/10 07:38:49;;;;;;;27.60;5.25;;;;;;;5.45;100.00;101490.19;5016198;28;20378;-70
2023/01/10 07:41:14;;;;;;;21.98;4.40;;;;;;;5.48;100.00;101494.53;5016176;28;20045;-69
2023/01/10 07:43:40;;;;;;;25.83;4.97;;;;;;;5.29;100.00;101457.13;5034422;28;20036;-70
2023/01/10 07:46:10;;;;;;;28.55;5.97;;;;;;;4.91;100.00;101391.91;5015905;28;20025;-71
2023/01/10 07:48:37;;;;;;;27.73;5.03;;;;;;;5.51;100.00;101482.34;5018233;28;20033;-70
2023/01/10 07:51:03;;;;;;;25.65;4.97;;;;;;;5.64;100.00;101507.56;5037166;28;20158;-73
2023/01/10 07:53:29;;;;;;;28.23;4.95;;;;;;;5.25;100.00;101437.13;5016496;28;20095;-71
2023/01/10 07:55:59;;;;;;;28.23;5.78;;;;;;;5.57;100.00;101477.06;5027011;28;20464;-70
2023/01/10 07:58:24;;;;;;;29.45;6.40;;;;;;;5.67;100.00;101498.84;5016546;28;20124;-72
2023/01/10 08:00:49;;;;;;;28.60;5.15;;;;;;;5.28;100.00;101413.63;5024708;28;20113;-72
2023/01/10 08:03:16;;;;;;;25.83;5.82;;;;;;;5.83;100.00;101518.84;4996248;28;20139;-70
2023/01/10 08:05:41;;;;;;;29.58;5.68;;;;;;;5.78;100.00;101504.06;5012624;28;20030;-70
2023/01/10 08:08:08;;;;;;;26.27;5.65;;;;;;;5.46;100.00;101455.34;5012904;28;20105;-68
2023/01/10 08:10:35;;;;;;;26.85;5.95;;;;;;;5.77;100.00;101511.00;5013760;28;20444;-69
2023/01/10 08:13:01;;;;;;;21.98;5.15;;;;;;;5.70;100.00;101506.66;5013015;28;20489;-67
2023/01/10 08:15:26;;;;;;;35.40;6.30;;;;;;;5.81;100.00;101514.50;4996152;28;20118;-66
2023/01/10 08:17:51;;;;;;;28.00;5.43;;;;;;;5.76;100.00;101531.91;5012907;28;20100;-68
2023/01/10 08:20:17;;;;;;;26.17;6.35;;;;;;;5.79;100.00;101513.59;5012951;28;20069;-67
2023/01/10 08:22:42;;;;;;;23.00;5.63;;;;;;;5.75;100.00;101517.97;5013843;28;20092;-68
2023/01/10 08:25:08;;;;;;;23.05;5.72;;;;;;;5.61;100.00;101504.94;5010794;28;20042;-68
2023/01/10 08:27:34;;;;;;;29.67;6.35;;;;;;;5.70;100.00;101524.94;5013266;28;20040;-68
2023/01/10 08:29:59;;;;;;;25.67;5.68;;;;;;;5.68;100.00;101505.81;5012381;28;20037;-68
2023/01/10 08:32:25;;;;;;;38.67;6.18;;;;;;;5.65;100.00;101500.59;5011360;28;20030;-67
2023/01/10 08:34:50;;;;;;;27.27;6.25;;;;;;;5.62;100.00;101495.38;5006923;28;20066;-68
2023/01/10 08:37:15;;;;;;;27.00;5.93;;;;;;;5.59;100.00;101490.16;5010553;28;20037;-66
2023/01/10 08:39:41;;;;;;;25.95;5.45;;;;;;;5.22;100.00;101437.13;5012476;28;20038;-67
2023/01/10 08:42:06;;;;;;;24.45;4.68;;;;;;;5.20;100.00;101432.75;5011218;28;20471;-67
2023/01/10 08:44:32;;;;;;;28.05;5.70;;;;;;;5.21;100.00;101440.59;5010428;28;20034;-66
2023/01/10 08:46:57;;;;;;;28.20;5.28;;;;;;;5.65;100.00;101508.44;5015125;28;20053;-66
2023/01/10 08:49:22;;;;;;;31.52;6.32;;;;;;;4.77;100.00;101361.50;5011623;28;20037;-66
2023/01/10 08:51:48;;;;;;;21.33;5.80;;;;;;;5.07;100.00;101418.88;5012274;28;20042;-67
2023/01/10 08:54:13;;;;;;;20.92;5.47;;;;;;;5.57;100.00;101497.97;5010629;28;20033;-66
2023/01/10 08:56:39;;;;;;;26.63;5.03;;;;;;;5.17;100.00;101422.34;5010970;28;20030;-67
2023/01/10 08:59:05;;;;;;;26.27;5.85;;;;;;;5.12;100.00;101414.50;5010624;28;20451;-67
2023/01/10 09:01:30;;;;;;;27.83;6.82;;;;;;;5.20;100.00;101424.94;4993778;28;20478;-67
2023/01/10 09:03:56;;;;;;;25.00;6.05;;;;;;;5.22;100.00;101418.00;5012618;28;20058;-68
2023/01/10 09:06:22;;;;;;;28.80;5.95;;;;;;;5.55;100.00;101471.00;5011937;28;20041;-67
2023/01/10 09:08:48;;;;;;;19.88;4.93;;;;;;;5.53;100.00;101466.66;5016289;28;20030;-68
2023/01/10 09:11:13;;;;;;;24.90;6.10;;;;;;;5.66;100.00;101494.50;5011616;28;20557;-67
2023/01/10 09:13:39;;;;;;;24.00;4.85;;;;;;;5.65;100.00;101483.19;5011873;28;20104;-68
2023/01/10 09:16:05;;;;;;;30.88;7.35;;;;;;;5.60;100.00;101468.41;5011317;28;20026;-68
2023/01/10 09:18:30;;;;;;;21.02;6.30;;;;;;;5.46;100.00;101439.69;5011761;28;20038;-68
2023/01/10 09:20:56;;;;;;;23.55;5.45;;;;;;;5.74;100.00;101473.56;5010541;28;20473;-68
2023/01/10 09:23:22;;;;;;;28.08;7.05;;;;;;;5.63;100.00;101458.78;4995227;28;20408;-67
2023/01/10 09:25:53;;;;;;;26.08;6.38;;;;;;;5.35;100.00;101417.06;5013568;28;20038;-67
2023/01/10 09:28:19;;;;;;;27.80;6.47;;;;;;;5.69;100.00;101460.53;5010206;28;20065;-67
2023/01/10 09:30:45;;;;;;;33.30;6.75;;;;;;;5.85;100.00;101484.84;5010105;28;20040;-67
2023/01/10 09:33:12;;;;;;;25.08;5.95;;;;;;;5.78;100.00;101444.81;5010170;28;20475;-68
2023/01/10 09:35:39;;;;;;;25.70;5.88;;;;;;;5.80;100.00;101450.06;5012306;28;20137;-67
2023/01/10 09:38:06;;;;;;;28.77;6.05;;;;;;;6.03;100.00;101477.00;5015648;28;20485;-68
2023/01/10 09:41:05;;;;;;;19.45;5.15;;;;;;;6.03;100.00;101484.84;5023703;28;20132;-68
2023/01/10 09:43:46;;;;;;;24.70;6.22;;;;;;;6.04;100.00;101497.88;5015328;28;20048;-68
2023/01/10 09:46:18;;;;;;;;;;;;;;;6.03;100.00;101500.53;5019582;28;20025;-68
2023/01/10 09:48:58;;;;;;;18.92;5.68;;;;;;;6.05;100.00;101498.75;5013975;28;19914;-68
2023/01/10 09:51:43;;;;;;;25.70;5.23;;;;;;;5.81;100.00;101467.47;5000647;28;20072;-68
2023/01/10 09:54:21;;;;;;;26.45;6.60;;;;;;;5.96;100.00;101478.75;5000030;28;20065;-69
2023/01/10 09:56:47;;;;;;;23.80;5.40;;;;;;;5.73;100.00;101446.59;5010217;28;20044;-69
2023/01/10 09:59:18;;;;;;;22.00;6.53;;;;;;;5.78;100.00;101444.81;5018424;28;20045;-70
2023/01/10 10:01:43;;;;;;;;;;;;;;;6.07;100.00;101486.59;4998246;28;20073;-68
2023/01/10 10:04:19;;;;;;;30.60;7.13;;;;;;;5.90;100.00;101463.09;5010554;28;20380;-65
2023/01/10 10:06:47;;;;;;;23.45;5.40;;;;;;;5.73;100.00;101423.06;5009779;28;20054;-68
2023/01/10 10:09:22;;;;;;;20.25;5.32;;;;;;;6.13;100.00;101500.47;5011281;28;20516;-68
2023/01/10 10:11:58;;;;;;;23.73;5.82;;;;;;;6.13;100.00;101491.75;5009741;28;20469;-65
2023/01/10 10:14:55;;;;;;;26.35;5.70;;;;;;;6.07;100.00;101481.34;5009293;28;20045;-68
2023/01/10 10:17:30;;;;;;;26.40;5.43;;;;;;;6.02;100.00;101463.06;4994553;28;20033;-67
2023/01/10 10:20:07;;;;;;;26.92;5.28;;;;;;;6.18;100.00;101471.72;5009700;28;20124;-64
2023/01/10 10:22:44;;;;;;;17.77;4.93;;;;;;;6.12;100.00;101488.31;5010645;28;20559;-67
2023/01/10 10:25:36;;;;;;;29.35;6.03;;;;;;;5.66;100.00;101383.03;5010609;28;20072;-69
2023/01/10 10:28:16;;;;;;;25.50;6.38;;;;;;;5.77;100.00;101392.59;5007079;28;20092;-67
2023/01/10 10:31:00;;;;;;;22.00;5.47;;;;;;;5.84;100.00;101410.84;5017621;28;20033;-68
2023/01/10 10:33:35;;;;;;;27.70;5.45;;;;;;;6.19;100.00;101474.31;5010725;28;20030;-68
2023/01/10 10:36:11;;;;;;;25.88;5.65;;;;;;;6.21;100.00;101483.03;5013751;28;20084;-68
2023/01/10 10:38:38;;;;;;;23.55;5.50;;;;;;;6.22;100.00;101452.50;5009348;28;20072;-68
2023/01/10 10:41:20;;;;;;;17.40;4.97;;;;;;;5.96;100.00;101408.22;5014770;28;20050;-66
2023/01/10 10:43:46;;;;;;;20.73;5.15;;;;;;;5.86;100.00;101389.97;5028609;28;20072;-67
2023/01/10 10:46:14;;;;;;;22.40;5.80;;;;;;;5.89;100.00;101397.81;5028115;28;20026;-67
2023/01/10 10:48:49;;;;;;;28.77;6.13;;;;;;;5.73;100.00;101364.72;5028612;28;20112;-68
2023/01/10 10:51:19;;;;;;;21.73;6.85;;;;;;;6.02;100.00;101418.63;5030414;28;20041;-68
2023/01/10 10:53:46;;;;;;;18.60;5.68;;;;;;;6.13;100.00;101421.19;5030196;28;20077;-68
2023/01/10 10:56:14;;;;;;;27.00;6.10;;;;;;;5.83;100.00;101364.72;5019448;28;20065;-66
2023/01/10 10:58:41;;;;;;;23.52;6.65;;;;;;;6.22;100.00;101431.59;5009674;28;20042;-68
2023/01/10 11:01:11;;;;;;;24.05;5.75;;;;;;;5.46;100.00;101287.38;5010351;28;20029;-65
2023/01/10 11:03:50;;;;;;;29.00;8.03;;;;;;;6.31;100.00;101428.06;5011971;28;20513;-65
2023/01/10 11:06:16;;;;;;;21.30;5.38;;;;;;;5.90;100.00;101347.25;5029767;28;20342;-66
2023/01/10 11:08:44;;;;;;;20.25;6.03;;;;;;;6.04;100.00;101375.06;5029805;28;20034;-68
2023/01/10 11:11:32;;;;;;;22.60;5.82;;;;;;;5.97;100.00;101343.75;5013263;28;20025;-66
2023/01/10 11:14:03;;;;;;;19.40;5.30;;;;;;;6.35;100.00;101403.66;4999051;28;20330;-66
2023/01/10 11:16:29;;;;;;;25.42;5.53;;;;;;;6.47;100.00;101407.06;5033692;28;20041;-68
2023/01/10 11:19:33;;;;;;;20.83;5.90;;;;;;;6.46;100.00;101405.31;5033406;28;20033;-69
2023/01/10 11:22:01;;;;;;;24.17;6.45;;;;;;;6.43;100.00;101391.38;5032985;28;20417;-70
2023/01/10 11:24:32;;;;;;;17.90;6.15;;;;;;;6.10;100.00;101333.22;5016151;28;20068;-69
2023/01/10 11:27:01;;;;;;;26.65;5.57;;;;;;;5.98;100.00;101308.91;5033481;28;20034;-67
2023/01/10 11:29:30;;;;;;;21.58;5.47;;;;;;;6.47;100.00;101393.13;5033659;28;20528;-69
2023/01/10 11:31:56;;;;;;;18.08;5.30;;;;;;;6.43;100.00;101384.41;4999682;28;20477;-68